Time;durP1;ratioP1;P1;durP2;ratioP2;P2;SDS_P1;SDS_P2;PMS_P1;PMS_P2;Temp;Humidity;BMP_temperature;BMP_pressure;BME280_temperature;BME280_humidity;BME280_pressure;Samples;Min_cycle;Max_cycle;Signal;HPM_P1;HPM_P2
2022/05/08 00:00:13;;;;;;;7.50;4.63;;;10.10;99.90;;;;;;5044245;28;20448;-82
2022/05/08 00:02:40;;;;;;;4.63;2.35;;;10.00;99.90;;;;;;5047570;28;20056;-81
2022/05/08 00:05:07;;;;;;;6.88;3.08;;;10.00;99.90;;;;;;5048401;28;20059;-81
2022/05/08 00:07:32;;;;;;;12.90;3.10;;;10.00;99.90;;;;;;5047236;28;20048;-82
2022/05/08 00:09:58;;;;;;;4.20;2.88;;;10.10;99.90;;;;;;5047703;28;20041;-82
2022/05/08 00:12:24;;;;;;;14.30;4.93;;;10.10;99.90;;;;;;5046907;28;20044;-81
2022/05/08 00:14:49;;;;;;;14.40;3.58;;;10.00;99.90;;;;;;5047198;28;20048;-81
2022/05/08 00:17:15;;;;;;;18.25;3.72;;;10.00;99.90;;;;;;5046723;28;20048;-81
2022/05/08 00:19:43;;;;;;;5.82;2.55;;;10.00;99.90;;;;;;5048036;28;20061;-81
2022/05/08 00:22:08;;;;;;;31.23;3.88;;;10.00;99.90;;;;;;5048139;28;20037;-82
2022/05/08 00:24:34;;;;;;;4.30;2.35;;;10.00;99.90;;;;;;5048298;28;20082;-81
2022/05/08 00:26:59;;;;;;;12.27;3.45;;;9.90;99.90;;;;;;5048629;28;20041;-81
2022/05/08 00:29:25;;;;;;;12.68;4.07;;;9.90;99.90;;;;;;5047769;28;20068;-81
2022/05/08 00:31:51;;;;;;;2.70;2.40;;;9.90;99.90;;;;;;5047686;28;20906;-82
2022/05/08 00:34:16;;;;;;;3.10;2.55;;;9.90;99.90;;;;;;5046241;28;20384;-81
2022/05/08 00:36:42;;;;;;;16.77;3.15;;;9.90;99.90;;;;;;5047064;28;20052;-81
2022/05/08 00:39:07;;;;;;;5.80;2.83;;;9.90;99.90;;;;;;5038619;28;20049;-82
2022/05/08 00:41:33;;;;;;;6.95;2.30;;;9.90;99.90;;;;;;5040204;28;20044;-82
2022/05/08 00:43:59;;;;;;;7.47;3.90;;;9.90;99.90;;;;;;5046939;28;20056;-81
2022/05/08 00:46:24;;;;;;;7.50;3.05;;;9.80;99.90;;;;;;5052484;28;20414;-82
2022/05/08 00:48:50;;;;;;;6.68;2.90;;;9.80;99.90;;;;;;5046479;28;20170;-81
2022/05/08 00:51:17;;;;;;;4.55;2.38;;;9.80;99.90;;;;;;5047484;28;20047;-81
2022/05/08 00:53:46;;;;;;;4.10;2.20;;;9.80;99.90;;;;;;5046583;28;20041;-81
2022/05/08 00:56:14;;;;;;;6.97;3.25;;;9.80;99.90;;;;;;5046148;28;20049;-81
2022/05/08 00:58:42;;;;;;;6.53;3.40;;;9.80;99.90;;;;;;5047274;28;20033;-81
2022/05/08 01:01:09;;;;;;;2.47;2.28;;;9.70;99.90;;;;;;5047137;28;20045;-81
2022/05/08 01:03:35;;;;;;;3.95;2.45;;;9.80;99.90;;;;;;5046878;28;20084;-81
2022/05/08 01:06:08;;;;;;;18.05;3.72;;;9.70;99.90;;;;;;5045795;28;20072;-80
2022/05/08 01:08:39;;;;;;;10.38;2.70;;;9.70;99.90;;;;;;5047373;28;20513;-82
2022/05/08 01:11:06;;;;;;;3.55;3.25;;;9.60;99.90;;;;;;5047083;28;20102;-81
2022/05/08 01:13:32;;;;;;;5.00;2.53;;;9.60;99.90;;;;;;5047585;28;20088;-81
2022/05/08 01:15:58;;;;;;;3.95;2.30;;;9.60;99.90;;;;;;5047277;28;20045;-81
2022/05/08 01:18:24;;;;;;;11.57;2.72;;;9.60;99.90;;;;;;5046317;28;20077;-81
2022/05/08 01:20:51;;;;;;;12.73;3.55;;;9.70;99.90;;;;;;5047271;28;20051;-81
2022/05/08 01:23:18;;;;;;;9.98;2.97;;;9.60;99.90;;;;;;5046745;28;20562;-81
2022/05/08 01:25:55;;;;;;;7.82;2.95;;;9.60;99.90;;;;;;5047212;28;20041;-82
2022/05/08 01:28:22;;;;;;;12.13;3.22;;;9.60;99.90;;;;;;5046892;28;20806;-81
2022/05/08 01:30:50;;;;;;;2.45;1.77;;;9.60;99.90;;;;;;5046797;28;20041;-81
2022/05/08 01:33:16;;;;;;;5.80;3.05;;;9.60;99.90;;;;;;5045957;28;20230;-81
2022/05/08 01:35:42;;;;;;;4.07;2.85;;;9.60;99.90;;;;;;5036575;28;20050;-81
2022/05/08 01:38:10;;;;;;;9.82;3.58;;;9.60;99.90;;;;;;5037104;28;20499;-81
2022/05/08 01:40:36;;;;;;;4.72;2.30;;;9.50;99.90;;;;;;5047249;28;20040;-81
2022/05/08 01:43:02;;;;;;;2.15;1.98;;;9.60;99.90;;;;;;5046534;28;20098;-80
2022/05/08 01:45:28;;;;;;;8.60;3.58;;;9.60;99.90;;;;;;5047276;28;20053;-81
2022/05/08 01:50:39;;;;;;;5.35;2.58;;;9.50;99.90;;;;;;5031547;28;20060;-81
2022/05/08 01:53:05;;;;;;;16.45;2.90;;;9.50;99.90;;;;;;5045088;28;20041;-82
2022/05/08 01:55:31;;;;;;;9.85;3.13;;;9.40;99.90;;;;;;5046748;28;20110;-81
2022/05/08 01:57:58;;;;;;;9.85;3.58;;;9.40;99.90;;;;;;5047220;28;20056;-81
2022/05/08 02:00:25;;;;;;;7.53;3.30;;;9.50;99.90;;;;;;5046449;28;20055;-81
2022/05/08 02:02:51;;;;;;;5.57;2.78;;;9.50;99.90;;;;;;5045797;28;20114;-81
2022/05/08 02:05:18;;;;;;;12.82;2.78;;;9.40;99.90;;;;;;5045023;28;20107;-81
2022/05/08 02:07:45;;;;;;;6.65;2.60;;;9.40;99.90;;;;;;5046612;28;20033;-81
2022/05/08 02:10:11;;;;;;;6.60;2.95;;;9.40;99.90;;;;;;5047058;28;20049;-81
2022/05/08 02:12:37;;;;;;;3.58;2.45;;;9.40;99.90;;;;;;5050891;28;20073;-82
2022/05/08 02:15:04;;;;;;;3.72;2.90;;;9.40;99.90;;;;;;5050613;28;20080;-82
2022/05/08 02:17:29;;;;;;;5.63;2.75;;;9.40;99.90;;;;;;5049674;28;20045;-82
2022/05/08 02:19:56;;;;;;;5.75;3.00;;;9.30;99.90;;;;;;5050735;28;20051;-81
2022/05/08 02:22:21;;;;;;;4.88;2.55;;;9.30;99.90;;;;;;5050155;28;20041;-81
2022/05/08 02:24:47;;;;;;;9.07;2.88;;;9.30;99.90;;;;;;5050665;28;20045;-81
2022/05/08 02:27:12;;;;;;;9.77;3.13;;;9.30;99.90;;;;;;5048919;28;20044;-81
2022/05/08 02:29:38;;;;;;;9.98;3.03;;;9.30;99.90;;;;;;5048294;28;20045;-81
2022/05/08 02:32:04;;;;;;;8.35;2.58;;;9.30;99.90;;;;;;5029364;28;20404;-82
2022/05/08 02:34:29;;;;;;;4.13;3.05;;;9.20;99.90;;;;;;5029796;28;20498;-81
2022/05/08 02:36:55;;;;;;;10.02;3.97;;;9.30;99.90;;;;;;5044392;28;20041;-81
2022/05/08 02:39:20;;;;;;;4.50;3.40;;;9.20;99.90;;;;;;5048490;28;20514;-81
2022/05/08 02:41:46;;;;;;;9.20;4.07;;;9.20;99.90;;;;;;5050541;28;20139;-81
2022/05/08 02:44:12;;;;;;;10.35;3.15;;;9.20;99.90;;;;;;5049968;28;20041;-81
2022/05/08 02:46:37;;;;;;;2.40;2.20;;;9.20;99.90;;;;;;5058303;28;20125;-81
2022/05/08 02:49:03;;;;;;;18.05;2.65;;;9.20;99.90;;;;;;5031711;28;20055;-81
2022/05/08 02:51:28;;;;;;;7.00;1.98;;;9.20;99.90;;;;;;5050070;28;20047;-81
2022/05/08 02:53:54;;;;;;;4.38;2.45;;;9.20;99.90;;;;;;5050005;28;20163;-81
2022/05/08 02:59:04;;;;;;;5.30;2.20;;;9.20;99.90;;;;;;5049537;28;20099;-81
2022/05/08 03:01:29;;;;;;;6.78;2.50;;;9.10;99.90;;;;;;5049257;28;20543;-81
2022/05/08 03:03:55;;;;;;;3.42;2.03;;;9.10;99.90;;;;;;5048554;28;20404;-81
2022/05/08 03:06:20;;;;;;;2.47;1.65;;;9.10;99.90;;;;;;5049392;28;20052;-81
2022/05/08 03:08:48;;;;;;;3.83;2.60;;;9.10;99.90;;;;;;5049761;28;20044;-81
2022/05/08 03:11:25;;;;;;;5.60;2.63;;;9.00;99.90;;;;;;5049492;28;20052;-81
2022/05/08 03:13:52;;;;;;;4.22;2.28;;;9.00;99.90;;;;;;5048538;28;20483;-81
2022/05/08 03:16:18;;;;;;;7.55;1.33;;;9.00;99.90;;;;;;5048628;28;20056;-80
2022/05/08 03:18:45;;;;;;;2.25;1.30;;;9.00;99.90;;;;;;5047935;28;20430;-81
2022/05/08 03:21:13;;;;;;;5.43;1.73;;;9.00;99.90;;;;;;5044613;28;20060;-81
2022/05/08 03:23:39;;;;;;;13.85;1.13;;;8.90;99.90;;;;;;5049867;28;20445;-81
2022/05/08 03:26:06;;;;;;;2.03;1.58;;;8.90;99.90;;;;;;5047699;28;20032;-80
2022/05/08 03:28:32;;;;;;;8.40;2.10;;;8.90;99.90;;;;;;5047860;28;20053;-82
2022/05/08 03:31:01;;;;;;;1.60;1.00;;;8.80;99.90;;;;;;5049315;28;20199;-81
2022/05/08 03:33:28;;;;;;;16.30;2.50;;;8.80;99.90;;;;;;5047503;28;20120;-80
2022/05/08 03:35:53;;;;;;;4.03;2.78;;;8.80;99.90;;;;;;5049400;28;20037;-81
2022/05/08 03:38:19;;;;;;;3.47;1.58;;;8.70;99.90;;;;;;5048683;28;20041;-81
2022/05/08 03:40:44;;;;;;;3.85;1.00;;;8.70;99.90;;;;;;5049277;28;20866;-81
2022/05/08 03:43:10;;;;;;;3.90;1.88;;;8.70;99.90;;;;;;5030964;28;20056;-81
2022/05/08 03:45:36;;;;;;;1.77;1.67;;;8.70;99.90;;;;;;5051135;28;20044;-81
2022/05/08 03:48:02;;;;;;;3.55;1.55;;;8.70;99.90;;;;;;5052159;28;20122;-81
2022/05/08 03:50:28;;;;;;;12.23;2.20;;;8.70;99.90;;;;;;5048833;28;20510;-81
2022/05/08 03:52:55;;;;;;;5.30;1.83;;;8.80;99.90;;;;;;5048756;28;20495;-81
2022/05/08 03:55:20;;;;;;;5.07;2.03;;;8.80;99.90;;;;;;5048839;28;20037;-81
2022/05/08 03:57:46;;;;;;;1.52;1.38;;;8.70;99.90;;;;;;5048650;28;20041;-81
2022/05/08 04:00:14;;;;;;;7.18;1.75;;;8.80;99.90;;;;;;5047028;28;20033;-81
2022/05/08 04:02:40;;;;;;;3.53;1.60;;;8.80;99.90;;;;;;5047646;28;20056;-81
2022/05/08 04:05:06;;;;;;;2.67;1.02;;;8.80;99.90;;;;;;5048679;28;20052;-81
2022/05/08 04:07:32;;;;;;;1.58;1.38;;;8.80;99.90;;;;;;5048481;28;20041;-80
2022/05/08 04:09:58;;;;;;;1.40;1.30;;;8.70;99.90;;;;;;5048467;28;20049;-81
2022/05/08 04:12:26;;;;;;;1.63;1.30;;;8.70;99.90;;;;;;5048063;28;20033;-81
2022/05/08 04:14:52;;;;;;;4.00;1.33;;;8.70;99.90;;;;;;5048092;28;20067;-81
2022/05/08 04:17:18;;;;;;;5.07;1.27;;;8.70;99.90;;;;;;5046975;28;20041;-81
2022/05/08 04:19:44;;;;;;;2.38;1.95;;;8.70;99.90;;;;;;5048232;28;20553;-81
2022/05/08 04:24:54;;;;;;;14.68;1.42;;;8.70;99.90;;;;;;5048469;28;20053;-81
2022/05/08 04:27:19;;;;;;;2.30;1.05;;;8.70;99.90;;;;;;5029680;28;20045;-81
2022/05/08 04:29:45;;;;;;;0.77;0.77;;;8.70;99.90;;;;;;5047746;28;20523;-82
2022/05/08 04:32:11;;;;;;;1.60;0.75;;;8.70;99.90;;;;;;5046814;28;20076;-82
2022/05/08 04:34:37;;;;;;;1.95;1.23;;;8.70;99.90;;;;;;5047533;28;20099;-82
2022/05/08 04:37:03;;;;;;;1.95;1.13;;;8.70;99.90;;;;;;5046030;28;20037;-81
2022/05/08 04:39:29;;;;;;;1.02;0.93;;;8.70;99.90;;;;;;5047950;28;20549;-81
2022/05/08 04:41:54;;;;;;;0.70;0.70;;;8.70;99.90;;;;;;5048054;28;20037;-81
2022/05/08 04:44:20;;;;;;;1.45;1.35;;;8.70;99.90;;;;;;5047421;28;20050;-81
2022/05/08 04:46:46;;;;;;;0.73;0.73;;;8.70;99.90;;;;;;5058454;28;20509;-81
2022/05/08 04:49:11;;;;;;;1.33;1.23;;;8.70;99.90;;;;;;5053070;28;20045;-81
2022/05/08 04:51:37;;;;;;;4.15;1.58;;;8.70;99.90;;;;;;5047626;28;20056;-80
2022/05/08 04:54:03;;;;;;;1.80;1.42;;;8.70;99.90;;;;;;5029318;28;20514;-81
2022/05/08 04:56:30;;;;;;;6.38;1.33;;;8.80;99.90;;;;;;5047991;28;20079;-81
2022/05/08 04:58:55;;;;;;;1.25;1.15;;;8.70;99.90;;;;;;5040606;28;20483;-81
2022/05/08 05:01:21;;;;;;;6.43;1.35;;;8.80;99.90;;;;;;5028933;28;20099;-80
2022/05/08 05:03:48;;;;;;;13.30;2.00;;;8.80;99.90;;;;;;5047103;28;20156;-81
2022/05/08 05:06:14;;;;;;;16.73;1.80;;;8.80;99.90;;;;;;5047286;28;20433;-80
2022/05/08 05:08:39;;;;;;;1.42;1.33;;;8.90;99.90;;;;;;5047344;28;20090;-81
2022/05/08 05:11:08;;;;;;;4.43;1.38;;;8.90;99.90;;;;;;5046514;28;20126;-81
2022/05/08 05:13:35;;;;;;;5.68;2.28;;;9.00;99.90;;;;;;5047335;28;20048;-81
2022/05/08 05:16:01;;;;;;;6.00;1.42;;;9.00;99.90;;;;;;5046065;28;20052;-82
2022/05/08 05:18:26;;;;;;;1.00;0.95;;;9.00;99.90;;;;;;5044798;28;20048;-81
2022/05/08 05:20:52;;;;;;;3.22;1.42;;;9.00;99.90;;;;;;5026342;28;20057;-81
2022/05/08 05:23:17;;;;;;;6.05;1.85;;;9.00;99.90;;;;;;5026127;28;20045;-82
2022/05/08 05:25:43;;;;;;;10.63;1.83;;;9.10;99.90;;;;;;5045982;28;20049;-81
2022/05/08 05:28:09;;;;;;;9.02;1.73;;;9.10;99.90;;;;;;5047057;28;20044;-81
2022/05/08 05:30:34;;;;;;;4.57;2.67;;;9.10;99.90;;;;;;5046681;28;20059;-81
2022/05/08 05:33:00;;;;;;;1.65;1.30;;;9.10;99.90;;;;;;5045183;28;20041;-80
2022/05/08 05:35:26;;;;;;;2.85;1.27;;;9.20;99.90;;;;;;5047268;28;20763;-81
2022/05/08 05:37:51;;;;;;;9.25;2.47;;;9.20;99.90;;;;;;5045663;28;20051;-82
2022/05/08 05:40:17;;;;;;;6.43;1.77;;;9.20;99.90;;;;;;5046285;28;20132;-81
2022/05/08 05:42:42;;;;;;;0.98;0.90;;;9.20;99.90;;;;;;5045473;28;20041;-81
2022/05/08 05:45:08;;;;;;;3.95;1.88;;;9.30;99.90;;;;;;5044309;28;20044;-82
2022/05/08 05:47:49;;;;;;;5.18;1.48;;;9.30;99.90;;;;;;5052777;28;20398;-81
2022/05/08 05:50:18;;;;;;;0.60;0.60;;;9.40;99.90;;;;;;5046226;28;20430;-82
2022/05/08 05:52:43;;;;;;;1.00;1.00;;;9.40;99.90;;;;;;5046395;28;20051;-82
2022/05/08 05:55:09;;;;;;;1.92;1.80;;;9.50;99.90;;;;;;5046160;28;20041;-82
2022/05/08 05:57:36;;;;;;;0.98;0.98;;;9.50;99.90;;;;;;5034368;28;20061;-82
2022/05/08 06:00:03;;;;;;;4.35;1.95;;;9.50;99.90;;;;;;5026678;28;20099;-81
2022/05/08 06:02:29;;;;;;;7.07;1.13;;;9.50;99.90;;;;;;5026535;28;20041;-82
2022/05/08 06:04:54;;;;;;;3.60;2.05;;;9.60;99.90;;;;;;5041743;28;20082;-82
2022/05/08 06:07:20;;;;;;;2.00;1.80;;;9.60;99.90;;;;;;5045742;28;20343;-81
2022/05/08 06:09:45;;;;;;;1.10;1.10;;;9.60;99.90;;;;;;5046615;28;20170;-82
2022/05/08 06:12:12;;;;;;;1.50;1.40;;;9.70;99.90;;;;;;5046346;28;20434;-81
2022/05/08 06:14:38;;;;;;;3.03;1.58;;;9.70;99.90;;;;;;5046084;28;20086;-82
2022/05/08 06:17:03;;;;;;;2.90;1.05;;;9.70;99.90;;;;;;5043659;28;20045;-82
2022/05/08 06:19:31;;;;;;;8.02;1.02;;;9.70;99.90;;;;;;5046465;28;20500;-82
2022/05/08 06:21:57;;;;;;;2.03;1.20;;;9.70;99.90;;;;;;5046796;28;20048;-82
2022/05/08 06:24:23;;;;;;;1.27;0.77;;;9.70;99.90;;;;;;5046326;28;20045;-81
2022/05/08 06:26:48;;;;;;;8.45;1.73;;;9.70;99.90;;;;;;5044620;28;20037;-82
2022/05/08 06:29:14;;;;;;;1.13;1.02;;;9.70;99.90;;;;;;5046214;28;20501;-82
2022/05/08 06:31:39;;;;;;;1.35;0.88;;;9.70;99.90;;;;;;5041785;28;20479;-82
2022/05/08 06:34:06;;;;;;;4.07;1.25;;;9.70;99.90;;;;;;5016091;28;20449;-82
2022/05/08 06:36:32;;;;;;;1.15;0.70;;;9.60;99.90;;;;;;5044643;28;20083;-82
2022/05/08 06:38:58;;;;;;;3.55;1.10;;;9.60;99.90;;;;;;5046411;28;20430;-82
2022/05/08 06:41:24;;;;;;;0.82;0.52;;;9.60;99.90;;;;;;5045762;28;20052;-82
2022/05/08 06:43:50;;;;;;;1.17;0.95;;;9.60;99.90;;;;;;5045479;28;20509;-82
2022/05/08 06:46:15;;;;;;;3.35;1.00;;;9.60;99.90;;;;;;5051893;28;20040;-81
2022/05/08 06:48:41;;;;;;;1.45;0.93;;;9.70;99.90;;;;;;5046460;28;20060;-82
2022/05/08 06:51:07;;;;;;;2.70;1.08;;;9.70;99.90;;;;;;5046006;28;20464;-81
2022/05/08 06:53:32;;;;;;;1.30;1.08;;;9.80;99.90;;;;;;5048449;28;20098;-82
2022/05/08 06:55:58;;;;;;;1.95;1.27;;;9.80;99.90;;;;;;5050362;28;20402;-82
2022/05/08 06:58:26;;;;;;;2.83;1.08;;;9.90;99.90;;;;;;5049089;28;20399;-82
2022/05/08 07:03:36;;;;;;;4.38;1.00;;;10.10;99.90;;;;;;5060834;28;20540;-82
2022/05/08 07:06:02;;;;;;;4.55;0.85;;;10.10;99.90;;;;;;5052386;28;20045;-82
2022/05/08 07:08:28;;;;;;;2.78;1.58;;;10.10;99.90;;;;;;5051334;28;20041;-82
2022/05/08 07:10:54;;;;;;;1.38;1.23;;;10.10;99.90;;;;;;5051528;28;20079;-81
2022/05/08 07:13:26;;;;;;;4.13;1.00;;;10.10;99.90;;;;;;5048397;28;20123;-82
2022/05/08 07:15:54;;;;;;;1.10;0.98;;;10.10;99.90;;;;;;5048113;28;20085;-81
2022/05/08 07:18:21;;;;;;;7.78;1.20;;;10.10;99.90;;;;;;5047596;28;20056;-82
2022/05/08 07:20:47;;;;;;;0.68;0.68;;;10.10;99.90;;;;;;5048170;28;20056;-84
2022/05/08 07:23:12;;;;;;;1.77;1.08;;;10.10;99.90;;;;;;5049242;28;20078;-83
2022/05/08 07:25:39;;;;;;;5.38;1.52;;;10.20;99.90;;;;;;5047866;28;20174;-83
2022/05/08 07:28:05;;;;;;;3.15;1.73;;;10.20;99.90;;;;;;5049110;28;20065;-83
2022/05/08 07:30:30;;;;;;;5.90;1.42;;;10.30;99.90;;;;;;5049112;28;20043;-82
2022/05/08 07:33:00;;;;;;;4.32;1.83;;;10.30;99.90;;;;;;5048379;28;20040;-83
2022/05/08 07:38:10;;;;;;;6.90;1.73;;;10.30;99.90;;;;;;5047601;28;20056;-82
2022/05/08 07:40:35;;;;;;;4.53;1.23;;;10.30;99.90;;;;;;5047400;28;20049;-85
2022/05/08 07:43:01;;;;;;;1.33;0.80;;;10.40;99.90;;;;;;5032924;28;20051;-84
2022/05/08 07:45:28;;;;;;;3.08;1.05;;;10.50;99.90;;;;;;5047443;28;20044;-84
2022/05/08 07:47:55;;;;;;;5.25;0.95;;;10.60;99.90;;;;;;5041227;28;20037;-85
2022/05/08 07:50:21;;;;;;;1.10;1.00;;;10.70;99.90;;;;;;5047498;28;20106;-84
2022/05/08 07:52:46;;;;;;;0.93;0.63;;;10.70;99.90;;;;;;5045687;28;20049;-84
2022/05/08 07:55:12;;;;;;;4.30;1.15;;;10.70;99.90;;;;;;5047197;28;20053;-85
2022/05/08 07:57:37;;;;;;;2.15;1.00;;;10.70;99.90;;;;;;5046409;28;20072;-84
2022/05/08 08:00:05;;;;;;;1.25;1.23;;;10.70;99.90;;;;;;5047918;28;20041;-83
2022/05/08 08:02:30;;;;;;;2.08;1.15;;;10.60;99.90;;;;;;5044338;28;20038;-80
2022/05/08 08:04:56;;;;;;;0.50;0.50;;;10.60;99.90;;;;;;5043367;28;20055;-81
2022/05/08 08:07:21;;;;;;;1.48;1.08;;;10.60;99.90;;;;;;5038326;28;20121;-80
2022/05/08 08:09:47;;;;;;;1.23;1.13;;;10.60;99.90;;;;;;5042892;28;20049;-82
2022/05/08 08:12:12;;;;;;;2.65;1.90;;;10.60;99.90;;;;;;5046568;28;20045;-83
2022/05/08 08:14:38;;;;;;;1.85;1.45;;;10.60;99.90;;;;;;5047705;28;20040;-85
2022/05/08 08:17:04;;;;;;;0.90;0.90;;;10.60;99.90;;;;;;5046100;28;20044;-84
2022/05/08 08:19:30;;;;;;;3.97;0.95;;;10.70;99.90;;;;;;5048933;28;20091;-85
2022/05/08 08:21:56;;;;;;;5.28;1.40;;;10.60;99.90;;;;;;5048401;28;20044;-86
2022/05/08 08:24:21;;;;;;;4.07;1.02;;;10.60;99.90;;;;;;5047496;28;20041;-82
2022/05/08 08:26:47;;;;;;;1.40;1.00;;;10.70;99.90;;;;;;5048172;28;20053;-82
2022/05/08 08:29:14;;;;;;;4.28;0.90;;;10.70;99.90;;;;;;5052331;28;20048;-83
2022/05/08 08:31:40;;;;;;;1.42;1.33;;;10.70;99.90;;;;;;5047643;28;20108;-88
2022/05/08 08:34:05;;;;;;;1.38;1.27;;;10.70;99.90;;;;;;5047616;28;20176;-84
2022/05/08 08:36:31;;;;;;;2.33;1.08;;;10.70;99.90;;;;;;5046140;28;20179;-82
2022/05/08 08:38:56;;;;;;;2.78;1.00;;;10.80;99.90;;;;;;5048191;28;20467;-83
2022/05/08 08:41:27;;;;;;;1.10;1.00;;;10.80;99.90;;;;;;5047123;28;20033;-83
2022/05/08 08:49:30;;;;;;;1.88;1.50;;;10.90;99.90;;;;;;5046621;28;20061;-84
2022/05/08 08:51:58;;;;;;;4.30;0.95;;;11.00;99.90;;;;;;5050488;28;20055;-85
2022/05/08 08:54:24;;;;;;;1.20;1.10;;;11.00;99.90;;;;;;5053246;28;20036;-87
2022/05/08 08:56:50;;;;;;;2.63;0.73;;;11.00;99.90;;;;;;5052229;28;20278;-83
2022/05/08 08:59:16;;;;;;;5.10;1.55;;;11.00;99.90;;;;;;5045967;28;20049;-84
2022/05/08 09:01:43;;;;;;;6.38;1.58;;;11.00;99.90;;;;;;5045957;28;20426;-85
2022/05/08 09:04:10;;;;;;;2.00;0.98;;;11.00;99.90;;;;;;5047183;28;20048;-84
2022/05/08 09:06:40;;;;;;;4.80;1.50;;;11.10;99.90;;;;;;5047184;28;20130;-85
2022/05/08 09:09:27;;;;;;;8.90;0.85;;;11.10;99.90;;;;;;5046721;28;20037;-88
2022/05/08 09:11:54;;;;;;;1.52;1.30;;;11.10;99.90;;;;;;5050296;28;20052;-86
2022/05/08 09:14:31;;;;;;;2.70;1.23;;;11.20;99.90;;;;;;5046675;28;20033;-89
2022/05/08 09:16:58;;;;;;;1.70;1.27;;;11.20;99.90;;;;;;5044618;28;20052;-85
2022/05/08 09:19:40;;;;;;;4.47;1.23;;;11.20;99.90;;;;;;5028358;28;20075;-86
2022/05/08 09:22:06;;;;;;;;;;;11.20;99.90;;;;;;5030550;28;20056;-85
2022/05/08 09:24:33;;;;;;;5.30;1.50;;;11.30;99.90;;;;;;5042834;28;19924;-85
2022/05/08 09:27:13;;;;;;;0.80;0.70;;;11.30;99.90;;;;;;5046452;28;20549;-86
2022/05/08 09:29:40;;;;;;;1.75;1.55;;;11.30;99.90;;;;;;5048993;28;20045;-85
2022/05/08 09:32:06;;;;;;;0.80;0.80;;;11.30;99.90;;;;;;5043549;28;20850;-85
2022/05/08 09:34:57;;;;;;;4.68;1.60;;;11.30;99.90;;;;;;5048381;28;20111;-84
2022/05/08 09:37:23;;;;;;;0.60;0.60;;;11.40;99.90;;;;;;5051664;28;20111;-85
2022/05/08 09:39:49;;;;;;;4.07;1.10;;;11.40;99.90;;;;;;5054960;28;20474;-84
2022/05/08 09:42:37;;;;;;;6.78;0.90;;;11.50;99.90;;;;;;5056477;28;20076;-85
2022/05/08 09:45:07;;;;;;;1.80;1.15;;;11.50;99.90;;;;;;5047087;28;20748;-79
2022/05/08 09:47:47;;;;;;;4.43;1.13;;;11.50;99.90;;;;;;5048186;28;20128;-82
2022/05/08 09:50:13;;;;;;;1.30;1.20;;;11.50;99.90;;;;;;5045339;28;20045;-83
2022/05/08 09:52:41;;;;;;;4.88;1.17;;;11.50;99.90;;;;;;5047588;28;20051;-82
2022/05/08 09:55:12;;;;;;;1.38;0.93;;;11.50;99.90;;;;;;5044144;28;20045;-81
2022/05/08 09:57:39;;;;;;;0.60;0.60;;;11.60;99.90;;;;;;5027526;28;20059;-80
2022/05/08 10:00:05;;;;;;;6.28;1.40;;;11.50;99.90;;;;;;5035005;28;20079;-82
2022/05/08 10:02:31;;;;;;;0.57;0.57;;;11.50;99.90;;;;;;5044357;28;20084;-84
2022/05/08 10:04:57;;;;;;;3.53;0.80;;;11.50;99.90;;;;;;5045594;28;20072;-83
2022/05/08 10:07:24;;;;;;;2.55;0.93;;;11.50;99.90;;;;;;5046031;28;20045;-79
2022/05/08 10:15:34;;;;;;;0.98;0.57;;;11.60;99.90;;;;;;5044993;28;20091;-78
2022/05/08 10:18:23;;;;;;;0.65;0.65;;;11.60;99.90;;;;;;5039973;28;20442;-79
2022/05/08 10:21:08;;;;;;;8.57;1.45;;;11.60;99.90;;;;;;5046073;28;20041;-77
2022/05/08 10:23:47;;;;;;;1.13;1.13;;;11.60;99.90;;;;;;5045278;28;20098;-78
2022/05/08 10:26:17;;;;;;;0.93;0.90;;;11.60;99.90;;;;;;5040516;28;20099;-85
2022/05/08 10:29:01;;;;;;;3.08;1.58;;;11.70;99.90;;;;;;5048014;28;20037;-80
2022/05/08 10:31:42;;;;;;;9.40;1.48;;;11.60;99.90;;;;;;5046466;28;20045;-88
2022/05/08 10:34:08;;;;;;;2.05;0.70;;;11.70;99.90;;;;;;5049875;28;20053;-86
2022/05/08 10:36:34;;;;;;;3.17;1.15;;;11.70;99.90;;;;;;5050494;28;20072;-91
2022/05/08 10:39:38;;;;;;;5.43;1.88;;;11.70;99.90;;;;;;5044208;28;20076;-91
2022/05/08 10:42:04;;;;;;;2.47;1.05;;;11.70;99.90;;;;;;5049671;28;20076;-88
2022/05/08 10:44:37;;;;;;;1.15;0.85;;;11.80;99.90;;;;;;5049679;28;20073;-91
2022/05/08 10:47:34;;;;;;;1.63;1.52;;;11.80;99.90;;;;;;5056027;28;20045;-91
2022/05/08 10:50:11;;;;;;;3.45;1.13;;;11.70;99.90;;;;;;5045663;28;20136;-90
2022/05/08 10:52:44;;;;;;;1.23;1.15;;;11.80;99.90;;;;;;5049678;28;20076;-92
2022/05/08 10:55:15;;;;;;;3.10;1.50;;;11.80;99.90;;;;;;5049898;28;20138;-91
2022/05/08 10:57:42;;;;;;;2.28;1.13;;;11.80;99.90;;;;;;5049450;28;20040;-91
2022/05/08 11:00:09;;;;;;;0.73;0.73;;;11.80;99.90;;;;;;5044797;28;20075;-92
2022/05/08 11:02:40;;;;;;;10.55;2.00;;;11.80;99.90;;;;;;5045300;28;20143;-92
2022/05/08 11:05:31;;;;;;;3.40;1.27;;;11.90;99.90;;;;;;5046582;28;20038;-91
2022/05/08 11:08:07;;;;;;;3.53;0.88;;;11.90;99.90;;;;;;5030416;28;20168;-90
2022/05/08 11:10:34;;;;;;;2.67;1.33;;;12.00;99.90;;;;;;5036633;28;20132;-90
2022/05/08 11:13:14;;;;;;;1.02;0.82;;;12.00;99.90;;;;;;5049800;28;20037;-89
2022/05/08 11:15:43;;;;;;;1.85;1.20;;;12.00;99.90;;;;;;5031195;28;20095;-84
2022/05/08 11:18:09;;;;;;;4.53;1.58;;;11.90;99.90;;;;;;5047619;28;20057;-85
2022/05/08 11:20:48;;;;;;;4.60;1.52;;;12.00;99.90;;;;;;5028940;28;20052;-91
2022/05/08 11:23:16;;;;;;;3.33;1.17;;;12.00;99.90;;;;;;5047998;28;20128;-90
2022/05/08 11:25:49;;;;;;;2.50;2.03;;;12.00;99.90;;;;;;5044034;28;20056;-88
2022/05/08 11:28:17;;;;;;;5.28;1.10;;;12.00;99.90;;;;;;5042037;28;20056;-88
2022/05/08 11:30:43;;;;;;;6.88;1.40;;;12.00;99.90;;;;;;5049874;28;20029;-88
2022/05/08 11:36:04;;;;;;;1.40;0.90;;;12.00;99.90;;;;;;5047697;28;20045;-87
2022/05/08 11:38:51;;;;;;;2.05;1.38;;;12.10;99.90;;;;;;5048263;28;20076;-91
2022/05/08 11:41:19;;;;;;;6.78;1.02;;;12.10;99.90;;;;;;5048339;28;20086;-89
2022/05/08 11:43:50;;;;;;;0.88;0.70;;;12.10;99.90;;;;;;5046483;28;20104;-81
2022/05/08 11:46:18;;;;;;;0.93;0.90;;;12.10;99.90;;;;;;5046511;28;20036;-87
2022/05/08 11:48:46;;;;;;;11.18;1.33;;;12.10;99.90;;;;;;5035715;28;20107;-88
2022/05/08 11:51:13;;;;;;;7.68;1.45;;;12.10;99.90;;;;;;5045675;28;20036;-87
2022/05/08 11:53:52;;;;;;;3.67;1.00;;;12.10;99.90;;;;;;5049043;28;20453;-85
2022/05/08 11:56:32;;;;;;;8.70;1.90;;;12.10;99.90;;;;;;5044571;28;20059;-84
2022/05/08 11:59:06;;;;;;;2.05;1.38;;;12.10;99.90;;;;;;5046008;28;20503;-84
2022/05/08 12:01:38;;;;;;;8.32;1.40;;;12.10;99.90;;;;;;5045008;28;20076;-82
2022/05/08 12:04:24;;;;;;;6.07;1.10;;;12.10;99.90;;;;;;5045763;28;20049;-83
2022/05/08 12:07:01;;;;;;;8.45;1.15;;;12.20;99.90;;;;;;5048055;28;20041;-82
2022/05/08 12:09:29;;;;;;;4.18;1.40;;;12.20;99.90;;;;;;5050039;28;20041;-82
2022/05/08 12:11:54;;;;;;;4.15;1.70;;;12.20;99.90;;;;;;5065812;28;20044;-82
2022/05/08 12:14:31;;;;;;;2.33;1.27;;;12.30;99.90;;;;;;5056254;28;20406;-81
2022/05/08 12:17:02;;;;;;;5.13;1.38;;;12.30;99.90;;;;;;5047097;28;20041;-82
2022/05/08 12:19:29;;;;;;;6.63;1.92;;;12.30;99.90;;;;;;5046868;28;20453;-81
2022/05/08 12:21:54;;;;;;;2.22;0.63;;;12.30;99.90;;;;;;5047870;28;20044;-81
2022/05/08 12:24:21;;;;;;;2.40;1.05;;;12.30;99.90;;;;;;5053691;28;20292;-84
2022/05/08 12:26:47;;;;;;;4.22;2.10;;;12.30;99.90;;;;;;5055163;28;20036;-84
2022/05/08 12:29:17;;;;;;;0.75;0.73;;;12.40;99.90;;;;;;5049994;28;20041;-84
2022/05/08 12:31:43;;;;;;;8.40;1.15;;;12.40;99.90;;;;;;5051831;28;20194;-84
2022/05/08 12:34:11;;;;;;;1.00;0.90;;;12.30;99.90;;;;;;5056746;28;20037;-83
2022/05/08 12:36:39;;;;;;;9.07;2.58;;;12.40;99.90;;;;;;5056580;28;20051;-83
2022/05/08 12:39:05;;;;;;;5.40;1.40;;;12.40;99.90;;;;;;5045465;28;20123;-82
2022/05/08 12:41:33;;;;;;;9.93;1.75;;;12.40;99.90;;;;;;5041378;28;20053;-84
2022/05/08 12:43:59;;;;;;;1.58;1.45;;;12.50;99.90;;;;;;5040759;28;20061;-84
2022/05/08 12:46:24;;;;;;;4.55;1.10;;;12.50;99.90;;;;;;5039356;28;20037;-86
2022/05/08 12:48:50;;;;;;;1.55;1.02;;;12.50;99.90;;;;;;5043223;28;20060;-90
2022/05/08 12:51:15;;;;;;;0.88;0.88;;;12.50;99.90;;;;;;5043344;28;20659;-90
2022/05/08 12:53:42;;;;;;;6.03;0.77;;;12.50;99.90;;;;;;5038239;28;20541;-94
2022/05/08 12:56:08;;;;;;;2.15;1.10;;;12.50;99.90;;;;;;5022805;28;20049;-85
2022/05/08 13:01:18;;;;;;;2.20;0.85;;;12.50;99.90;;;;;;5039104;28;20450;-86
2022/05/08 13:03:43;;;;;;;5.15;1.10;;;12.50;99.90;;;;;;5037641;28;20041;-85
2022/05/08 13:06:09;;;;;;;5.13;1.10;;;12.50;99.90;;;;;;5038736;28;20044;-87
2022/05/08 13:08:34;;;;;;;2.13;0.85;;;12.50;99.90;;;;;;5027072;28;20140;-83
2022/05/08 13:11:02;;;;;;;2.28;1.40;;;12.50;99.90;;;;;;5041134;28;20123;-87
2022/05/08 13:13:31;;;;;;;1.00;1.00;;;12.50;99.90;;;;;;5043901;28;20037;-89
2022/05/08 13:15:57;;;;;;;1.05;1.00;;;12.60;99.90;;;;;;5008831;28;20041;-85
2022/05/08 13:18:23;;;;;;;4.07;1.38;;;12.60;99.90;;;;;;5045314;28;20075;-86
2022/05/08 13:20:49;;;;;;;3.72;1.27;;;12.60;99.90;;;;;;5036831;28;20730;-82
2022/05/08 13:23:16;;;;;;;4.30;1.88;;;12.60;99.90;;;;;;5038344;28;20048;-85